Time;durP1;ratioP1;P1;durP2;ratioP2;P2;SDS_P1;SDS_P2;PMS_P1;PMS_P2;Temp;Humidity;BMP_temperature;BMP_pressure;BME280_temperature;BME280_humidity;BME280_pressure;Samples;Min_cycle;Max_cycle;Signal;HPM_P1;HPM_P2
2022/10/06 00:03:07;;;;;;;1.83;1.35;;;18.10;72.20;;;;;;10363095;28;20105;-58
2022/10/06 00:08:08;;;;;;;2.90;1.52;;;18.10;72.10;;;;;;10362150;28;20021;-58
2022/10/06 00:13:09;;;;;;;2.40;1.30;;;18.10;72.10;;;;;;10361982;28;20044;-58
2022/10/06 00:18:09;;;;;;;2.67;1.58;;;18.00;72.10;;;;;;10361496;28;20032;-58
2022/10/06 00:23:11;;;;;;;2.60;1.30;;;18.10;72.20;;;;;;10386214;28;20065;-58
2022/10/06 00:28:12;;;;;;;2.55;1.65;;;18.10;72.10;;;;;;10371522;28;20033;-59
2022/10/06 00:33:17;;;;;;;2.47;1.40;;;18.10;72.10;;;;;;10385977;28;20609;-58
2022/10/06 00:38:18;;;;;;;2.60;1.25;;;18.10;72.10;;;;;;10370796;28;20558;-59
2022/10/06 00:43:49;;;;;;;2.80;1.50;;;18.10;72.00;;;;;;10370385;28;20149;-58
2022/10/06 00:48:59;;;;;;;2.28;1.23;;;18.10;72.00;;;;;;10369575;28;20032;-59
2022/10/06 00:54:01;;;;;;;2.47;1.77;;;18.00;71.90;;;;;;10369061;28;20351;-57
2022/10/06 00:59:01;;;;;;;2.80;1.90;;;18.10;71.90;;;;;;10371162;28;20033;-59
2022/10/06 01:04:08;;;;;;;3.53;1.52;;;18.10;71.90;;;;;;10368319;28;20018;-58
2022/10/06 01:09:09;;;;;;;3.33;2.30;;;18.00;71.90;;;;;;10368570;28;20022;-58
2022/10/06 01:14:10;;;;;;;2.92;1.75;;;18.00;71.90;;;;;;10368527;28;20029;-59
2022/10/06 01:19:43;;;;;;;2.55;1.20;;;18.00;71.90;;;;;;10367350;28;20103;-58
2022/10/06 01:24:46;;;;;;;2.15;1.33;;;18.00;71.80;;;;;;10370169;28;20101;-58
2022/10/06 01:29:52;;;;;;;2.58;1.50;;;18.00;71.80;;;;;;10367439;28;20087;-59
2022/10/06 01:34:53;;;;;;;2.72;1.10;;;18.00;71.80;;;;;;10365937;28;20477;-59
2022/10/06 01:39:53;;;;;;;2.22;1.50;;;18.00;71.80;;;;;;10368130;28;20129;-59
2022/10/06 01:44:54;;;;;;;2.17;1.20;;;18.00;71.80;;;;;;10366425;28;20430;-59
2022/10/06 01:49:55;;;;;;;3.03;1.63;;;18.00;71.80;;;;;;10367534;28;20700;-58
2022/10/06 01:54:56;;;;;;;2.75;1.15;;;18.00;71.80;;;;;;10379432;28;20030;-58
2022/10/06 01:59:56;;;;;;;1.95;1.10;;;18.00;71.80;;;;;;10390062;28;20018;-59
2022/10/06 02:04:57;;;;;;;2.40;1.38;;;18.00;71.80;;;;;;10382213;28;20042;-59
2022/10/06 02:09:57;;;;;;;1.85;1.42;;;18.00;71.70;;;;;;10367200;28;20122;-59
2022/10/06 02:14:58;;;;;;;3.75;1.85;;;18.00;72.30;;;;;;10366158;28;20116;-58
2022/10/06 02:19:59;;;;;;;2.30;1.20;;;17.90;71.60;;;;;;10366769;28;20890;-59
2022/10/06 02:24:59;;;;;;;2.88;1.40;;;18.00;71.60;;;;;;10365666;28;20054;-59
2022/10/06 02:30:00;;;;;;;2.80;1.67;;;18.00;71.70;;;;;;10365329;28;20077;-59
2022/10/06 02:35:02;;;;;;;2.30;1.40;;;18.00;71.60;;;;;;10365649;28;20033;-57
2022/10/06 02:40:04;;;;;;;2.38;1.42;;;18.00;71.60;;;;;;10366082;28;20049;-59
2022/10/06 02:45:05;;;;;;;5.38;2.45;;;18.00;71.60;;;;;;10363667;28;20030;-59
2022/10/06 02:50:07;;;;;;;2.50;1.48;;;18.00;71.60;;;;;;10365903;28;20022;-59
2022/10/06 02:55:08;;;;;;;5.07;1.65;;;17.90;71.50;;;;;;10364236;28;20030;-59
2022/10/06 03:00:10;;;;;;;2.58;1.33;;;18.00;71.60;;;;;;10371793;28;20014;-58
2022/10/06 03:05:11;;;;;;;3.35;1.77;;;17.90;71.50;;;;;;10363822;28;20083;-59
2022/10/06 03:10:12;;;;;;;2.03;1.25;;;17.90;71.50;;;;;;10364921;28;20056;-59
2022/10/06 03:15:12;;;;;;;3.85;1.52;;;17.90;71.50;;;;;;10362909;28;20050;-59
2022/10/06 03:20:13;;;;;;;3.13;1.30;;;17.90;71.50;;;;;;10364163;28;20069;-59
2022/10/06 03:25:14;;;;;;;1.98;1.42;;;17.90;71.40;;;;;;10363138;28;20041;-59
2022/10/06 03:30:15;;;;;;;2.38;1.10;;;17.90;71.40;;;;;;10362967;28;20064;-59
2022/10/06 03:35:15;;;;;;;1.63;1.00;;;17.90;72.00;;;;;;10362808;28;20022;-59
2022/10/06 03:40:16;;;;;;;3.33;1.13;;;17.90;71.40;;;;;;10364040;28;20131;-59
2022/10/06 03:45:16;;;;;;;2.53;1.33;;;17.90;71.40;;;;;;10363745;28;20418;-59
2022/10/06 03:50:17;;;;;;;2.08;1.00;;;17.90;71.40;;;;;;10377924;28;20571;-59
2022/10/06 03:55:18;;;;;;;1.65;1.38;;;17.90;71.40;;;;;;10366366;28;20054;-59
2022/10/06 04:00:18;;;;;;;2.30;1.33;;;17.90;71.40;;;;;;10395025;28;20064;-58
2022/10/06 04:05:19;;;;;;;3.03;1.63;;;17.90;71.30;;;;;;10379657;28;20108;-59
2022/10/06 04:10:20;;;;;;;3.88;1.30;;;17.90;71.60;;;;;;10390421;28;20069;-59
2022/10/06 04:15:20;;;;;;;2.95;1.50;;;17.90;71.90;;;;;;10369563;28;20105;-57
2022/10/06 04:20:21;;;;;;;3.88;1.20;;;17.90;71.90;;;;;;10372745;28;20041;-58
2022/10/06 04:25:22;;;;;;;1.95;1.40;;;17.90;71.90;;;;;;10372513;28;20092;-59
2022/10/06 04:30:24;;;;;;;4.95;1.63;;;17.90;72.00;;;;;;10370214;28;20792;-59
2022/10/06 04:35:26;;;;;;;4.38;1.50;;;17.90;72.30;;;;;;10374071;28;20022;-59
2022/10/06 04:40:26;;;;;;;2.42;1.63;;;17.90;72.00;;;;;;10369465;28;20041;-59
2022/10/06 04:45:27;;;;;;;3.22;0.90;;;17.90;71.80;;;;;;10370224;28;20064;-59
2022/10/06 04:50:28;;;;;;;2.80;1.40;;;17.90;71.70;;;;;;10370717;28;20333;-60
2022/10/06 04:55:28;;;;;;;1.85;0.88;;;17.90;71.60;;;;;;10372424;28;20505;-60
2022/10/06 05:00:29;;;;;;;3.58;1.23;;;17.90;71.50;;;;;;10378257;28;20022;-59
2022/10/06 05:05:30;;;;;;;8.25;1.92;;;17.90;71.70;;;;;;10368518;28;20482;-59
2022/10/06 05:10:30;;;;;;;6.68;1.80;;;17.90;72.10;;;;;;10365391;28;20133;-59
2022/10/06 05:15:31;;;;;;;5.93;1.90;;;18.00;72.20;;;;;;10363326;28;20164;-59
2022/10/06 05:20:32;;;;;;;5.97;1.27;;;18.00;72.30;;;;;;10372769;28;20075;-60
2022/10/06 05:25:33;;;;;;;6.22;1.27;;;18.00;72.20;;;;;;10367887;28;20022;-61
2022/10/06 05:30:33;;;;;;;10.95;1.55;;;18.00;72.20;;;;;;10363408;28;20032;-60
2022/10/06 05:35:34;;;;;;;6.32;1.42;;;18.00;72.30;;;;;;10364421;28;20049;-58
2022/10/06 05:40:35;;;;;;;7.30;2.22;;;18.00;72.70;;;;;;10360079;28;20133;-59
2022/10/06 05:45:35;;;;;;;4.25;1.88;;;18.00;72.70;;;;;;10363704;28;20034;-61
2022/10/06 05:50:36;;;;;;;6.07;1.48;;;17.90;72.60;;;;;;10364499;28;20064;-60
2022/10/06 05:55:37;;;;;;;18.13;4.15;;;17.90;72.80;;;;;;10365952;28;20432;-59
2022/10/06 06:00:37;;;;;;;8.43;2.60;;;18.00;72.50;;;;;;10366210;28;20149;-59
2022/10/06 06:05:41;;;;;;;19.17;2.78;;;17.90;72.60;;;;;;10363424;28;20430;-59
2022/10/06 06:10:43;;;;;;;26.63;3.50;;;17.90;72.50;;;;;;10362486;28;20037;-59
2022/10/06 06:16:03;;;;;;;15.90;4.20;;;17.90;72.60;;;;;;10364237;28;20010;-62
2022/10/06 06:21:08;;;;;;;19.38;4.30;;;17.90;72.50;;;;;;10371287;28;20026;-61
2022/10/06 06:26:13;;;;;;;16.67;4.20;;;17.90;72.40;;;;;;10363523;28;20029;-60
2022/10/06 06:31:22;;;;;;;11.25;2.28;;;17.90;72.50;;;;;;10362290;28;20071;-61
2022/10/06 06:36:34;;;;;;;9.30;1.90;;;17.90;72.50;;;;;;10363831;28;20133;-61
2022/10/06 06:41:39;;;;;;;11.13;2.78;;;17.80;72.30;;;;;;10361745;28;20048;-61
2022/10/06 06:46:43;;;;;;;11.18;2.95;;;17.90;72.30;;;;;;10354856;28;20036;-61
2022/10/06 06:51:48;;;;;;;7.55;1.95;;;17.80;72.10;;;;;;10363492;28;20034;-61
2022/10/06 06:56:50;;;;;;;4.82;2.22;;;17.80;72.10;;;;;;10371493;28;20025;-61
2022/10/06 07:01:51;;;;;;;5.88;1.70;;;17.80;72.10;;;;;;10369790;28;20033;-61
2022/10/06 07:06:56;;;;;;;6.70;1.75;;;17.80;72.00;;;;;;10356362;28;20057;-61
2022/10/06 07:11:57;;;;;;;6.55;1.98;;;17.80;72.00;;;;;;10366957;28;20477;-61
2022/10/06 07:27:43;;;;;;;5.68;1.60;;;17.80;71.70;;;;;;10357771;28;20489;-61
2022/10/06 07:32:45;;;;;;;8.15;2.05;;;17.80;71.80;;;;;;10357936;28;20041;-61
2022/10/06 07:37:48;;;;;;;8.27;2.85;;;17.80;71.70;;;;;;10361867;28;20014;-61
2022/10/06 07:42:50;;;;;;;3.95;1.45;;;17.80;71.60;;;;;;10365163;28;20412;-61
2022/10/06 07:47:57;;;;;;;9.27;2.33;;;17.80;71.60;;;;;;10375173;28;20080;-60
2022/10/06 07:53:03;;;;;;;7.28;2.63;;;17.80;71.70;;;;;;10377670;28;20030;-62
2022/10/06 07:58:10;;;;;;;7.22;2.15;;;17.80;71.60;;;;;;10366798;28;20676;-62
2022/10/06 08:03:16;;;;;;;6.03;2.05;;;17.80;71.60;;;;;;10360333;28;20021;-61
2022/10/06 08:08:17;;;;;;;8.75;2.03;;;17.80;71.60;;;;;;10360453;28;20105;-61
2022/10/06 08:13:18;;;;;;;10.80;2.00;;;17.80;71.60;;;;;;10360776;28;20141;-62
2022/10/06 08:18:19;;;;;;;4.78;2.05;;;17.80;71.60;;;;;;10360581;28;20095;-61
2022/10/06 08:23:21;;;;;;;6.55;1.63;;;17.80;71.60;;;;;;10361433;28;20037;-61
2022/10/06 08:28:23;;;;;;;5.40;1.95;;;17.90;71.50;;;;;;10360583;28;20029;-62
2022/10/06 08:33:23;;;;;;;6.65;2.42;;;17.90;71.50;;;;;;10357290;28;20650;-61
2022/10/06 08:38:24;;;;;;;7.55;1.90;;;17.90;71.50;;;;;;10372842;28;20025;-61
2022/10/06 08:43:26;;;;;;;4.80;2.00;;;17.90;71.50;;;;;;10363553;28;20084;-62
2022/10/06 08:48:37;;;;;;;7.93;2.08;;;17.90;71.40;;;;;;10367137;28;20026;-61
2022/10/06 08:53:49;;;;;;;7.68;2.63;;;17.90;71.40;;;;;;10368665;28;20072;-61
2022/10/06 08:58:57;;;;;;;3.58;1.50;;;18.00;71.40;;;;;;10386795;28;20032;-62
2022/10/06 09:04:02;;;;;;;6.47;1.90;;;18.00;71.30;;;;;;10370149;28;20054;-61
2022/10/06 09:09:19;;;;;;;8.00;2.03;;;18.00;71.30;;;;;;10368630;28;20038;-62
2022/10/06 09:14:33;;;;;;;7.55;1.77;;;18.00;71.30;;;;;;10368092;28;20033;-62
2022/10/06 09:20:03;;;;;;;6.18;1.40;;;18.00;71.20;;;;;;10363627;28;20022;-61
2022/10/06 09:25:18;;;;;;;5.20;2.10;;;18.10;71.20;;;;;;10377451;28;20031;-62
2022/10/06 09:30:20;;;;;;;6.88;2.38;;;18.10;71.10;;;;;;10347992;28;20547;-62
2022/10/06 09:35:23;;;;;;;5.32;1.67;;;18.10;71.10;;;;;;10365625;28;20032;-61
2022/10/06 09:40:49;;;;;;;4.45;1.88;;;18.10;71.10;;;;;;10365269;28;20181;-61
2022/10/06 09:46:16;;;;;;;4.05;1.63;;;18.20;71.10;;;;;;10365611;28;20765;-61
2022/10/06 09:51:17;;;;;;;6.55;1.73;;;18.20;71.10;;;;;;10364736;28;20041;-61
2022/10/06 09:56:18;;;;;;;5.45;1.58;;;18.20;71.10;;;;;;10368605;28;20021;-61
2022/10/06 10:01:24;;;;;;;8.30;1.77;;;18.30;71.00;;;;;;10373906;28;20109;-61
2022/10/06 10:06:30;;;;;;;3.83;1.33;;;18.30;70.90;;;;;;10364118;28;20096;-60
2022/10/06 10:16:51;;;;;;;6.73;2.43;;;18.40;70.90;;;;;;10365119;28;20022;-61
2022/10/06 10:21:55;;;;;;;3.38;1.30;;;18.30;70.70;;;;;;10379508;28;20018;-61
2022/10/06 10:27:05;;;;;;;4.03;1.33;;;18.30;70.80;;;;;;10363805;28;20014;-61
2022/10/06 10:32:29;;;;;;;2.63;1.15;;;18.30;70.70;;;;;;10363633;28;20033;-61
2022/10/06 10:37:39;;;;;;;3.95;1.60;;;18.30;70.80;;;;;;10364130;28;20072;-62
2022/10/06 10:43:09;;;;;;;3.95;1.25;;;18.30;70.70;;;;;;10364444;28;20054;-60
2022/10/06 10:48:47;;;;;;;2.33;1.23;;;18.30;70.80;;;;;;10363818;28;20477;-61
2022/10/06 10:54:15;;;;;;;3.78;1.65;;;18.30;70.70;;;;;;10362236;28;20046;-62
2022/10/06 10:59:29;;;;;;;5.60;1.30;;;18.30;70.60;;;;;;10375563;28;20022;-61
2022/10/06 11:04:30;;;;;;;6.43;1.70;;;18.30;70.70;;;;;;10376832;28;20482;-60
2022/10/06 11:10:00;;;;;;;5.10;1.85;;;18.30;70.70;;;;;;10362382;28;20033;-60
2022/10/06 11:15:36;;;;;;;3.17;1.20;;;18.30;70.70;;;;;;10339934;28;20457;-62
2022/10/06 11:20:47;;;;;;;2.70;1.17;;;18.40;70.70;;;;;;10378066;28;20025;-62
2022/10/06 11:26:40;;;;;;;4.35;1.50;;;18.40;70.60;;;;;;10362646;28;20036;-63
2022/10/06 11:32:25;;;;;;;3.13;1.20;;;18.40;70.50;;;;;;10335351;28;20036;-61
2022/10/06 11:37:46;;;;;;;5.60;1.50;;;18.50;71.10;;;;;;10362526;28;20073;-61
2022/10/06 11:43:13;;;;;;;2.08;1.15;;;18.50;70.40;;;;;;10361023;28;20038;-61
2022/10/06 11:48:31;;;;;;;3.72;1.33;;;18.50;70.40;;;;;;10361121;28;20018;-61
2022/10/06 11:53:35;;;;;;;1.58;0.93;;;18.50;70.40;;;;;;10361077;28;20042;-61
2022/10/06 11:58:51;;;;;;;2.47;1.05;;;18.60;70.50;;;;;;10375028;28;20044;-61
2022/10/06 12:04:08;;;;;;;3.90;1.00;;;18.60;70.50;;;;;;10375332;28;20112;-61
2022/10/06 12:09:29;;;;;;;4.97;1.35;;;18.60;70.50;;;;;;10361637;28;20029;-61
2022/10/06 12:14:45;;;;;;;3.28;1.33;;;18.60;70.50;;;;;;10361732;28;20030;-60
2022/10/06 12:20:24;;;;;;;1.58;0.82;;;18.60;70.50;;;;;;10369603;28;20014;-62
2022/10/06 12:25:58;;;;;;;2.25;1.05;;;18.50;70.50;;;;;;10368500;28;20132;-62
2022/10/06 12:31:36;;;;;;;3.67;1.75;;;18.50;70.50;;;;;;10368048;28;20088;-61
2022/10/06 12:36:38;;;;;;;2.80;1.00;;;18.50;70.50;;;;;;10355881;28;20021;-62
2022/10/06 12:42:05;;;;;;;2.58;0.80;;;18.60;70.60;;;;;;10367843;28;20104;-61
2022/10/06 12:47:27;;;;;;;4.45;1.15;;;18.60;70.50;;;;;;10367572;28;20469;-62
2022/10/06 12:52:49;;;;;;;2.92;1.13;;;18.60;70.50;;;;;;10367633;28;20069;-62
2022/10/06 12:57:51;;;;;;;2.92;1.38;;;18.50;70.40;;;;;;10368515;28;20030;-61
2022/10/06 13:02:54;;;;;;;1.48;0.60;;;18.60;70.50;;;;;;10368822;28;20015;-61
2022/10/06 13:08:00;;;;;;;2.50;1.00;;;18.50;70.50;;;;;;10366940;28;20037;-62
2022/10/06 13:13:01;;;;;;;3.13;1.02;;;18.50;70.50;;;;;;10376370;28;20084;-61
2022/10/06 13:18:13;;;;;;;1.75;0.70;;;18.50;70.40;;;;;;10370976;28;20045;-61
2022/10/06 13:23:22;;;;;;;2.75;1.38;;;18.50;70.30;;;;;;10366232;28;20046;-61
2022/10/06 13:28:34;;;;;;;3.00;1.27;;;18.60;70.80;;;;;;10379727;28;20187;-62
2022/10/06 13:33:39;;;;;;;2.70;0.93;;;18.60;71.20;;;;;;10380170;28;20430;-61
2022/10/06 13:38:41;;;;;;;3.53;1.02;;;18.50;71.40;;;;;;10378660;28;20473;-61
2022/10/06 13:43:58;;;;;;;2.05;1.13;;;18.50;71.50;;;;;;10365237;28;20054;-60
2022/10/06 13:49:08;;;;;;;1.98;1.10;;;18.50;71.70;;;;;;10366839;28;20485;-61
2022/10/06 13:54:28;;;;;;;2.05;0.80;;;18.50;71.70;;;;;;10364781;28;20030;-60
2022/10/06 13:59:37;;;;;;;3.13;0.80;;;18.50;71.70;;;;;;10377899;28;20658;-62
2022/10/06 14:04:37;;;;;;;2.33;1.38;;;18.50;71.70;;;;;;10366012;28;20020;-61
2022/10/06 14:09:40;;;;;;;2.85;1.40;;;18.50;71.80;;;;;;10363849;28;20054;-62
2022/10/06 14:14:47;;;;;;;3.30;0.93;;;18.50;71.80;;;;;;10364025;28;20029;-61
2022/10/06 14:19:48;;;;;;;3.22;0.93;;;18.40;71.80;;;;;;10364150;28;20493;-61
2022/10/06 14:24:50;;;;;;;2.38;0.82;;;18.50;71.80;;;;;;10364081;28;20029;-61
2022/10/06 14:29:51;;;;;;;4.20;0.80;;;18.50;71.80;;;;;;10363413;28;20022;-61
2022/10/06 14:34:52;;;;;;;2.25;1.08;;;18.40;71.70;;;;;;10363360;28;20488;-61
2022/10/06 14:39:54;;;;;;;3.47;1.15;;;18.40;71.70;;;;;;10363013;28;20425;-61
2022/10/06 14:44:55;;;;;;;1.13;0.60;;;18.40;71.80;;;;;;10363063;28;20026;-61
2022/10/06 14:49:55;;;;;;;2.00;0.90;;;18.40;71.90;;;;;;10363929;28;20084;-62
2022/10/06 14:54:57;;;;;;;4.07;1.40;;;18.40;72.40;;;;;;10364465;28;20050;-62
2022/10/06 14:59:58;;;;;;;2.25;1.25;;;18.40;71.80;;;;;;10362608;28;20457;-61
2022/10/06 15:04:58;;;;;;;3.67;0.68;;;18.30;71.70;;;;;;10375464;28;20116;-61
2022/10/06 15:09:59;;;;;;;1.45;0.70;;;18.40;71.80;;;;;;10362418;28;20438;-61
2022/10/06 15:15:00;;;;;;;1.63;1.00;;;18.30;71.70;;;;;;10361911;28;20105;-61
2022/10/06 15:20:00;;;;;;;3.03;0.98;;;18.30;71.70;;;;;;10363202;28;20069;-61
2022/10/06 15:25:02;;;;;;;2.97;0.90;;;18.30;71.70;;;;;;10361792;28;20022;-62
2022/10/06 15:30:03;;;;;;;2.40;0.95;;;18.30;71.60;;;;;;10359682;28;20022;-62
2022/10/06 15:35:04;;;;;;;1.38;0.80;;;18.30;71.60;;;;;;10359261;28;20029;-62
2022/10/06 15:40:05;;;;;;;2.58;0.90;;;18.30;71.50;;;;;;10360491;28;20055;-62
2022/10/06 15:45:07;;;;;;;1.63;0.70;;;18.30;71.50;;;;;;10360089;28;20117;-61
2022/10/06 15:50:08;;;;;;;2.17;0.63;;;18.40;71.40;;;;;;10359542;28;20036;-61
2022/10/06 15:55:09;;;;;;;1.85;0.80;;;18.40;71.00;;;;;;10360402;28;20044;-61
2022/10/06 16:00:11;;;;;;;2.35;0.88;;;18.60;70.40;;;;;;10360047;28;20381;-63
2022/10/06 16:10:13;;;;;;;12.43;2.20;;;18.90;70.50;;;;;;10359416;28;20029;-58
2022/10/06 16:15:13;;;;;;;12.90;2.30;;;19.00;71.20;;;;;;10358334;28;20045;-57
2022/10/06 16:20:15;;;;;;;17.90;3.38;;;19.00;71.60;;;;;;10361733;28;20503;-58
2022/10/06 16:25:16;;;;;;;14.80;2.80;;;19.20;72.20;;;;;;10359847;28;20026;-60
2022/10/06 16:30:16;;;;;;;15.48;3.53;;;19.40;71.10;;;;;;10361267;28;20112;-59
2022/10/06 16:35:17;;;;;;;11.52;3.33;;;19.30;72.70;;;;;;10359440;28;20065;-59
2022/10/06 16:40:17;;;;;;;16.15;3.53;;;19.20;72.90;;;;;;10362423;28;20081;-60
2022/10/06 16:45:18;;;;;;;16.60;3.25;;;19.00;73.00;;;;;;10361164;28;20620;-58
2022/10/06 16:50:19;;;;;;;14.90;3.13;;;19.00;73.40;;;;;;10360796;28;20396;-57
2022/10/06 16:55:19;;;;;;;19.27;2.88;;;19.00;73.30;;;;;;10361855;28;20591;-57
2022/10/06 17:00:20;;;;;;;18.05;4.53;;;18.90;73.50;;;;;;10368411;28;20061;-58
2022/10/06 17:05:21;;;;;;;27.17;4.38;;;19.00;73.70;;;;;;10365887;28;20078;-56
2022/10/06 17:10:21;;;;;;;26.88;4.30;;;18.90;73.30;;;;;;10348459;28;20589;-57
2022/10/06 17:15:22;;;;;;;17.25;3.55;;;18.80;73.30;;;;;;10366162;28;20113;-57
2022/10/06 17:20:23;;;;;;;9.57;3.28;;;18.70;73.50;;;;;;10367943;28;20057;-58
2022/10/06 17:25:23;;;;;;;18.38;3.85;;;18.60;73.50;;;;;;10397521;28;20018;-55
2022/10/06 17:30:24;;;;;;;15.13;3.58;;;18.60;73.50;;;;;;10368149;28;20164;-57
2022/10/06 17:35:25;;;;;;;21.50;3.17;;;18.60;73.30;;;;;;10369005;28;20089;-58
2022/10/06 17:40:26;;;;;;;23.80;3.83;;;18.60;73.20;;;;;;10366168;28;20157;-59
2022/10/06 17:45:26;;;;;;;21.10;3.40;;;18.60;73.00;;;;;;10365084;28;20034;-58
2022/10/06 17:50:27;;;;;;;17.27;4.63;;;18.60;73.00;;;;;;10367061;28;20049;-58
2022/10/06 17:55:28;;;;;;;13.52;3.40;;;18.50;73.20;;;;;;10371110;28;20796;-58
2022/10/06 18:00:30;;;;;;;11.48;3.17;;;18.50;73.20;;;;;;10379825;28;20040;-58
2022/10/06 18:05:31;;;;;;;14.65;3.75;;;18.50;73.20;;;;;;10366684;28;20010;-59
2022/10/06 18:15:51;;;;;;;11.17;2.50;;;18.50;73.10;;;;;;10365467;28;20416;-59
2022/10/06 18:20:52;;;;;;;10.13;3.50;;;18.40;73.10;;;;;;10366805;28;20045;-58
2022/10/06 18:25:59;;;;;;;16.27;3.45;;;18.40;73.00;;;;;;10366802;28;20048;-59
2022/10/06 18:30:59;;;;;;;5.25;1.90;;;18.50;71.00;;;;;;10366818;28;20116;-59
2022/10/06 18:36:02;;;;;;;9.45;2.72;;;18.50;69.60;;;;;;10364410;28;20026;-59
2022/10/06 18:41:05;;;;;;;13.55;2.95;;;18.60;68.60;;;;;;10362379;28;20076;-59
2022/10/06 18:51:35;;;;;;;6.28;2.17;;;18.60;67.10;;;;;;10366825;28;20042;-60
2022/10/06 18:56:37;;;;;;;6.97;1.92;;;18.70;66.40;;;;;;10387318;28;20018;-59
2022/10/06 19:01:44;;;;;;;6.30;2.55;;;18.70;66.30;;;;;;10373057;28;20139;-59
2022/10/06 19:06:50;;;;;;;10.20;1.95;;;18.60;65.80;;;;;;10364659;28;20042;-60
2022/10/06 19:11:54;;;;;;;9.63;2.83;;;18.60;65.50;;;;;;10364062;28;20707;-60
2022/10/06 19:16:59;;;;;;;6.95;1.60;;;18.60;65.10;;;;;;10364342;28;20018;-59
2022/10/06 19:22:02;;;;;;;5.55;1.80;;;18.70;64.70;;;;;;10387701;28;20067;-59
2022/10/06 19:27:14;;;;;;;6.43;1.42;;;18.70;64.50;;;;;;10362039;28;20717;-59
2022/10/06 19:32:19;;;;;;;6.25;1.80;;;18.60;64.10;;;;;;10359690;28;20049;-60
2022/10/06 19:37:19;;;;;;;4.07;2.08;;;18.60;63.80;;;;;;10343968;28;20104;-60
2022/10/06 19:47:40;;;;;;;6.32;1.73;;;18.70;63.30;;;;;;10362165;28;20582;-60
2022/10/06 19:52:41;;;;;;;7.95;2.58;;;18.70;63.00;;;;;;10370656;28;20034;-60
2022/10/06 19:57:42;;;;;;;4.88;1.85;;;18.70;62.80;;;;;;10374179;28;20022;-60
2022/10/06 20:02:43;;;;;;;3.38;1.42;;;18.60;62.50;;;;;;10362097;28;20030;-60
2022/10/06 20:07:45;;;;;;;3.28;1.40;;;18.60;62.20;;;;;;10382102;28;20889;-60
2022/10/06 20:12:46;;;;;;;3.60;2.05;;;18.60;62.00;;;;;;10369726;28;20038;-60
2022/10/06 20:17:47;;;;;;;3.30;1.25;;;18.60;61.70;;;;;;10376919;28;20045;-60
2022/10/06 20:22:48;;;;;;;2.40;1.08;;;18.70;61.60;;;;;;10362562;28;20061;-61
2022/10/06 20:27:49;;;;;;;3.80;1.45;;;18.70;61.20;;;;;;10363227;28;20037;-60
2022/10/06 20:32:52;;;;;;;5.88;1.48;;;18.70;61.10;;;;;;10361797;28;20061;-60
2022/10/06 20:37:53;;;;;;;2.38;0.90;;;18.60;61.30;;;;;;10366651;28;20430;-59
2022/10/06 20:42:53;;;;;;;3.00;1.73;;;18.70;60.70;;;;;;10383127;28;20133;-58
2022/10/06 20:47:54;;;;;;;5.50;2.10;;;18.70;60.50;;;;;;10373507;28;20486;-58
2022/10/06 20:52:56;;;;;;;4.68;1.63;;;18.60;60.10;;;;;;10380102;28;20121;-58
2022/10/06 20:57:56;;;;;;;2.35;0.98;;;18.60;60.00;;;;;;10387071;28;20048;-58
2022/10/06 21:02:57;;;;;;;5.07;2.58;;;18.70;59.80;;;;;;10393306;28;20109;-58
2022/10/06 21:07:58;;;;;;;5.72;1.45;;;18.60;59.60;;;;;;10383465;28;20068;-58
2022/10/06 21:13:00;;;;;;;4.05;1.75;;;18.60;59.40;;;;;;10352449;28;20034;-58
2022/10/06 21:18:01;;;;;;;5.63;1.90;;;18.70;59.30;;;;;;10368404;28;20014;-58
2022/10/06 21:23:02;;;;;;;3.97;1.70;;;18.60;59.10;;;;;;10367703;28;20052;-58
2022/10/06 21:28:04;;;;;;;3.75;1.10;;;18.60;58.90;;;;;;10382757;28;20056;-58
2022/10/06 21:33:04;;;;;;;2.97;1.17;;;18.60;58.90;;;;;;10381215;28;20030;-58
2022/10/06 21:38:06;;;;;;;4.63;1.27;;;18.60;58.60;;;;;;10369534;28;20495;-58
2022/10/06 21:43:06;;;;;;;7.80;2.05;;;18.60;58.40;;;;;;10379850;28;20041;-58
2022/10/06 21:48:07;;;;;;;4.35;2.10;;;18.60;58.20;;;;;;10370256;28;20445;-58
2022/10/06 21:53:07;;;;;;;4.53;1.33;;;18.60;58.10;;;;;;10375974;28;20065;-58
2022/10/06 21:58:08;;;;;;;3.85;1.02;;;18.60;57.90;;;;;;10380441;28;20029;-58
2022/10/06 22:03:09;;;;;;;2.17;0.90;;;18.60;57.90;;;;;;10367909;28;20062;-58
2022/10/06 22:08:12;;;;;;;2.42;1.30;;;18.60;57.80;;;;;;10366920;28;20181;-58
2022/10/06 22:13:12;;;;;;;3.75;1.40;;;18.60;57.50;;;;;;10377407;28;20030;-57
2022/10/06 22:18:13;;;;;;;3.50;1.13;;;18.60;57.30;;;;;;10365885;28;20228;-58
2022/10/06 22:23:13;;;;;;;3.60;1.40;;;18.60;57.20;;;;;;10366799;28;20062;-58
2022/10/06 22:28:14;;;;;;;3.45;1.20;;;18.60;57.70;;;;;;10364133;28;20148;-58
2022/10/06 22:33:15;;;;;;;3.15;1.20;;;18.60;57.00;;;;;;10372973;28;20470;-58
2022/10/06 22:38:16;;;;;;;1.85;1.15;;;18.60;56.80;;;;;;10374640;28;20022;-58
2022/10/06 22:43:17;;;;;;;3.47;1.88;;;18.50;56.70;;;;;;10365834;28;20077;-58
2022/10/06 22:48:17;;;;;;;3.55;1.25;;;18.60;56.70;;;;;;10366519;28;20038;-60
2022/10/06 22:53:21;;;;;;;3.33;1.30;;;18.50;56.50;;;;;;10365309;28;20029;-58
2022/10/06 22:58:22;;;;;;;1.90;1.00;;;18.50;56.20;;;;;;10366380;28;20033;-58
2022/10/06 23:03:24;;;;;;;3.20;0.85;;;18.50;56.20;;;;;;10363984;28;20389;-58
2022/10/06 23:08:26;;;;;;;2.75;1.17;;;18.50;56.20;;;;;;10364513;28;20061;-57
2022/10/06 23:13:29;;;;;;;2.85;0.95;;;18.50;56.20;;;;;;10364397;28;20018;-58
2022/10/06 23:18:31;;;;;;;1.92;1.02;;;18.50;56.30;;;;;;10363682;28;20014;-58
2022/10/06 23:23:32;;;;;;;2.28;1.20;;;18.40;57.20;;;;;;10366391;28;20022;-58
2022/10/06 23:28:33;;;;;;;2.58;0.98;;;18.30;57.90;;;;;;10375873;28;20033;-61
2022/10/06 23:33:34;;;;;;;3.03;1.00;;;18.30;58.60;;;;;;10363830;28;20037;-58
2022/10/06 23:38:36;;;;;;;2.80;1.00;;;18.30;59.30;;;;;;10363167;28;20036;-58
2022/10/06 23:43:37;;;;;;;2.97;1.10;;;18.20;59.60;;;;;;10363230;28;20064;-58
2022/10/06 23:48:38;;;;;;;2.72;1.20;;;18.20;60.00;;;;;;10376324;28;20117;-58
2022/10/06 23:53:39;;;;;;;2.60;0.90;;;18.20;60.30;;;;;;10363869;28;20108;-58
2022/10/06 23:58:43;;;;;;;2.03;0.90;;;18.20;60.60;;;;;;10374376;28;20026;-58
